Time;durP1;ratioP1;P1;durP2;ratioP2;P2;SDS_P1;SDS_P2;PMS_P1;PMS_P2;Temp;Humidity;BMP_temperature;BMP_pressure;BME280_temperature;BME280_humidity;BME280_pressure;Samples;Min_cycle;Max_cycle;Signal;HPM_P1;HPM_P2
2022/06/23 00:00:25;;;;;;;3.88;3.60;;;22.70;74.50;;;;;;5054312;28;20167;-74
2022/06/23 00:02:52;;;;;;;4.32;3.05;;;22.70;74.00;;;;;;5049993;28;20190;-74
2022/06/23 00:05:20;;;;;;;5.05;3.95;;;22.70;74.60;;;;;;5048754;28;20184;-73
2022/06/23 00:07:51;;;;;;;3.15;3.03;;;22.70;74.60;;;;;;5052023;28;20183;-73
2022/06/23 00:10:38;;;;;;;3.80;3.42;;;22.70;74.20;;;;;;5049627;28;20207;-74
2022/06/23 00:13:14;;;;;;;3.30;3.08;;;22.70;74.10;;;;;;5047373;28;20807;-74
2022/06/23 00:15:42;;;;;;;3.33;3.13;;;22.70;73.90;;;;;;5052897;28;20194;-74
2022/06/23 00:18:24;;;;;;;3.17;2.97;;;22.70;74.20;;;;;;5048798;28;20252;-74
2022/06/23 00:21:14;;;;;;;4.93;3.05;;;22.60;74.30;;;;;;5049105;28;20200;-74
2022/06/23 00:23:42;;;;;;;4.20;3.05;;;22.60;74.00;;;;;;5048922;28;20192;-74
2022/06/23 00:26:15;;;;;;;3.28;3.00;;;22.60;74.20;;;;;;5049584;28;20193;-74
2022/06/23 00:29:01;;;;;;;6.10;3.70;;;22.60;74.40;;;;;;5055904;28;20214;-74
2022/06/23 00:31:32;;;;;;;3.25;3.15;;;22.60;74.50;;;;;;5053951;28;20176;-74
2022/06/23 00:34:00;;;;;;;2.80;2.50;;;22.60;74.30;;;;;;5048153;28;20741;-74
2022/06/23 00:36:34;;;;;;;4.40;3.60;;;22.50;74.40;;;;;;5047918;28;20226;-73
2022/06/23 00:39:00;;;;;;;4.53;3.20;;;22.50;74.10;;;;;;5048816;28;20215;-74
2022/06/23 00:41:33;;;;;;;3.78;3.28;;;22.50;74.80;;;;;;5050352;28;20185;-74
2022/06/23 00:44:14;;;;;;;2.90;2.70;;;22.40;74.60;;;;;;5046182;28;20188;-73
2022/06/23 00:46:53;;;;;;;3.70;3.50;;;22.40;74.80;;;;;;5052564;28;20183;-73
2022/06/23 00:49:45;;;;;;;3.45;3.25;;;22.40;74.60;;;;;;5051410;28;20625;-73
2022/06/23 00:52:22;;;;;;;4.10;3.03;;;22.30;74.70;;;;;;5049768;28;20179;-73
2022/06/23 00:54:54;;;;;;;5.90;2.88;;;22.30;74.60;;;;;;5045520;28;20191;-73
2022/06/23 00:57:27;;;;;;;3.10;2.75;;;22.30;75.00;;;;;;5047030;28;20214;-73
2022/06/23 01:00:04;;;;;;;4.03;3.67;;;22.30;74.80;;;;;;5050947;28;20182;-73
2022/06/23 01:02:43;;;;;;;4.32;3.20;;;22.30;74.70;;;;;;5049060;28;20180;-72
2022/06/23 01:05:19;;;;;;;3.25;2.95;;;22.30;74.90;;;;;;5052026;28;20183;-73
2022/06/23 01:08:14;;;;;;;4.28;2.78;;;22.20;75.00;;;;;;5042106;28;20183;-74
2022/06/23 01:10:56;;;;;;;2.75;2.60;;;22.20;74.90;;;;;;5044018;28;20212;-73
2022/06/23 01:14:09;;;;;;;3.20;3.05;;;22.20;74.70;;;;;;5048999;28;20660;-73
2022/06/23 01:16:47;;;;;;;2.85;2.65;;;22.10;75.80;;;;;;5042440;28;20204;-73
2022/06/23 01:19:40;;;;;;;3.50;3.15;;;22.10;75.30;;;;;;5058053;28;20194;-73
2022/06/23 01:22:20;;;;;;;4.95;3.47;;;22.10;75.20;;;;;;5060722;28;20584;-73
2022/06/23 01:24:51;;;;;;;3.28;3.13;;;22.00;74.80;;;;;;5058766;28;20193;-74
2022/06/23 01:27:41;;;;;;;3.55;3.13;;;22.00;75.20;;;;;;5062602;28;20282;-73
2022/06/23 01:30:10;;;;;;;3.05;2.95;;;22.00;74.90;;;;;;5059557;28;20191;-73
2022/06/23 01:32:43;;;;;;;3.72;3.38;;;22.00;75.30;;;;;;5057226;28;20671;-74
2022/06/23 01:35:20;;;;;;;6.13;3.55;;;21.90;75.50;;;;;;5059211;28;20699;-74
2022/06/23 01:38:00;;;;;;;3.13;2.92;;;21.90;74.90;;;;;;5054600;28;20249;-73
2022/06/23 01:40:39;;;;;;;3.47;3.30;;;21.90;74.90;;;;;;5059694;28;20191;-73
2022/06/23 01:43:26;;;;;;;3.13;2.92;;;21.90;75.10;;;;;;5060853;28;20274;-73
2022/06/23 01:46:00;;;;;;;3.17;3.05;;;21.80;75.30;;;;;;5057665;28;20184;-72
2022/06/23 01:48:53;;;;;;;3.55;3.33;;;21.80;75.20;;;;;;5059012;28;20240;-74
2022/06/23 01:51:38;;;;;;;3.60;3.30;;;21.80;75.30;;;;;;5058547;28;20190;-73
2022/06/23 01:54:12;;;;;;;3.30;3.10;;;21.70;75.50;;;;;;5045397;28;20191;-72
2022/06/23 01:56:57;;;;;;;3.70;3.40;;;21.70;75.60;;;;;;5044741;28;20193;-73
2022/06/23 01:59:45;;;;;;;3.65;3.35;;;21.70;75.40;;;;;;5043750;28;21019;-74
2022/06/23 02:02:11;;;;;;;4.32;3.92;;;21.70;75.80;;;;;;5039319;28;20688;-74
2022/06/23 02:04:39;;;;;;;3.72;3.45;;;21.60;76.00;;;;;;5050508;28;20184;-74
2022/06/23 02:07:21;;;;;;;3.90;3.60;;;21.60;75.90;;;;;;5044416;28;20334;-74
2022/06/23 02:09:53;;;;;;;3.25;3.05;;;21.60;76.00;;;;;;5049601;28;20195;-73
2022/06/23 02:12:34;;;;;;;4.40;4.00;;;21.60;76.90;;;;;;5049271;28;20345;-73
2022/06/23 02:15:17;;;;;;;5.30;3.50;;;21.60;76.70;;;;;;5046105;28;20194;-73
2022/06/23 02:17:49;;;;;;;3.45;3.25;;;21.50;77.20;;;;;;5051137;28;20217;-74
2022/06/23 02:20:21;;;;;;;3.95;3.65;;;21.50;77.70;;;;;;5045808;28;20291;-74
2022/06/23 02:22:48;;;;;;;4.00;3.70;;;21.40;77.20;;;;;;5049389;28;20687;-73
2022/06/23 02:25:29;;;;;;;3.47;3.28;;;21.40;77.10;;;;;;5043049;28;20568;-73
2022/06/23 02:28:00;;;;;;;4.13;3.78;;;21.30;76.90;;;;;;5048275;28;20201;-73
2022/06/23 02:30:35;;;;;;;3.75;3.53;;;21.30;77.10;;;;;;5044412;28;20931;-74
2022/06/23 02:33:05;;;;;;;3.58;3.47;;;21.20;76.50;;;;;;5048114;28;20217;-74
2022/06/23 02:35:52;;;;;;;4.38;4.05;;;21.20;76.70;;;;;;5051872;28;20190;-74
2022/06/23 02:38:30;;;;;;;3.70;3.50;;;21.10;76.50;;;;;;5047838;28;20233;-73
2022/06/23 02:41:18;;;;;;;4.03;3.65;;;21.10;76.60;;;;;;5044986;28;20887;-74
2022/06/23 02:43:49;;;;;;;4.07;3.72;;;21.10;76.60;;;;;;5044324;28;20187;-73
2022/06/23 02:46:20;;;;;;;3.90;3.67;;;21.00;76.80;;;;;;5037009;28;20184;-73
2022/06/23 02:49:09;;;;;;;4.22;3.83;;;21.00;76.60;;;;;;5045320;28;20194;-74
2022/06/23 02:52:11;;;;;;;3.75;3.55;;;21.00;76.90;;;;;;5065901;28;20187;-73
2022/06/23 02:54:56;;;;;;;4.13;3.83;;;21.00;76.80;;;;;;5058344;28;20189;-73
2022/06/23 02:57:32;;;;;;;4.85;4.35;;;20.90;77.60;;;;;;5069041;28;20259;-73
2022/06/23 03:00:08;;;;;;;4.03;3.53;;;20.90;77.50;;;;;;5069037;28;20193;-73
2022/06/23 03:02:42;;;;;;;4.00;3.70;;;20.90;77.80;;;;;;5063541;28;20779;-73
2022/06/23 03:05:31;;;;;;;5.30;3.63;;;20.90;78.40;;;;;;5059008;28;20189;-74
2022/06/23 03:07:59;;;;;;;5.05;3.90;;;20.90;78.00;;;;;;5065872;28;20295;-74
2022/06/23 03:10:56;;;;;;;4.07;3.78;;;20.90;78.30;;;;;;5064304;28;20198;-74
2022/06/23 03:13:25;;;;;;;5.10;3.35;;;20.90;78.50;;;;;;5066552;28;20211;-75
2022/06/23 03:16:06;;;;;;;4.35;3.95;;;20.90;79.20;;;;;;5062901;28;20210;-73
2022/06/23 03:18:40;;;;;;;5.07;4.50;;;20.80;78.80;;;;;;5073460;28;20210;-74
2022/06/23 03:21:20;;;;;;;4.30;3.90;;;20.80;78.40;;;;;;5048885;28;20236;-74
2022/06/23 03:23:58;;;;;;;4.13;3.85;;;20.80;78.60;;;;;;5069570;28;20222;-74
2022/06/23 03:26:45;;;;;;;4.63;4.18;;;20.70;79.10;;;;;;5052618;28;20193;-73
2022/06/23 03:29:11;;;;;;;6.90;3.92;;;20.70;78.90;;;;;;5062421;28;20195;-73
2022/06/23 03:31:45;;;;;;;4.28;3.80;;;20.70;79.50;;;;;;5054259;28;20184;-74
2022/06/23 03:34:20;;;;;;;7.47;4.35;;;20.70;80.10;;;;;;5057307;28;20213;-73
2022/06/23 03:37:04;;;;;;;3.58;3.38;;;20.70;80.10;;;;;;5055478;28;20778;-73
2022/06/23 03:42:45;;;;;;;4.72;4.32;;;20.60;80.00;;;;;;5050324;28;20635;-74
2022/06/23 03:45:20;;;;;;;5.43;3.95;;;20.60;80.20;;;;;;5055774;28;20191;-73
2022/06/23 03:48:11;;;;;;;3.90;3.70;;;20.60;80.50;;;;;;5053850;28;20194;-73
2022/06/23 03:50:43;;;;;;;6.65;3.85;;;20.60;80.10;;;;;;5057572;28;20676;-74
2022/06/23 03:53:30;;;;;;;4.10;3.80;;;20.60;80.40;;;;;;5052387;28;20187;-74
2022/06/23 03:56:01;;;;;;;5.45;4.45;;;20.60;80.10;;;;;;5050945;28;20183;-74
2022/06/23 03:58:27;;;;;;;4.65;3.65;;;20.70;80.70;;;;;;5048205;28;20217;-74
2022/06/23 04:01:14;;;;;;;4.15;3.92;;;20.70;81.10;;;;;;5050830;28;20171;-74
2022/06/23 04:04:01;;;;;;;4.55;4.05;;;20.70;80.30;;;;;;5050485;28;20199;-74
2022/06/23 04:06:48;;;;;;;4.00;3.33;;;20.70;79.60;;;;;;5049947;28;20658;-73
2022/06/23 04:09:21;;;;;;;4.35;3.60;;;20.70;79.50;;;;;;5049693;28;20665;-73
2022/06/23 04:12:13;;;;;;;3.85;3.60;;;20.70;79.90;;;;;;5054536;28;20184;-74
2022/06/23 04:15:00;;;;;;;5.85;3.83;;;20.70;79.30;;;;;;5048949;28;20194;-74
2022/06/23 04:17:34;;;;;;;5.18;4.35;;;20.70;79.70;;;;;;5050557;28;21156;-74
2022/06/23 04:20:08;;;;;;;4.93;4.05;;;20.80;79.80;;;;;;5050952;28;20252;-75
2022/06/23 04:23:06;;;;;;;4.40;4.00;;;20.80;80.80;;;;;;5044899;28;20180;-74
2022/06/23 04:25:39;;;;;;;5.22;4.07;;;20.90;80.30;;;;;;4993522;28;20193;-74
2022/06/23 04:28:05;;;;;;;4.00;3.65;;;20.90;80.10;;;;;;4995459;28;20201;-74
2022/06/23 04:30:38;;;;;;;8.23;4.78;;;20.90;81.50;;;;;;5002011;28;20790;-73
2022/06/23 04:33:07;;;;;;;4.82;4.20;;;21.00;81.70;;;;;;5010620;28;20195;-77
2022/06/23 04:35:36;;;;;;;5.13;4.20;;;21.00;81.60;;;;;;5004202;28;20900;-77
2022/06/23 04:38:11;;;;;;;4.70;4.30;;;21.00;81.20;;;;;;4992733;28;20216;-79
2022/06/23 04:40:43;;;;;;;5.15;4.30;;;20.90;80.20;;;;;;4997386;28;20243;-76
2022/06/23 04:43:19;;;;;;;4.78;4.07;;;20.90;80.90;;;;;;5000575;28;20207;-74
2022/06/23 04:46:11;;;;;;;4.60;3.75;;;20.90;80.20;;;;;;4999016;28;20196;-76
2022/06/23 04:49:02;;;;;;;5.90;4.53;;;21.00;81.50;;;;;;5005194;28;20215;-74
2022/06/23 04:51:45;;;;;;;5.00;4.15;;;21.00;80.20;;;;;;5002993;28;20672;-75
2022/06/23 04:54:10;;;;;;;5.07;4.70;;;21.00;80.80;;;;;;5002230;28;20200;-75
2022/06/23 04:56:42;;;;;;;4.07;3.78;;;21.00;80.70;;;;;;5007579;28;20193;-74
2022/06/23 04:59:33;;;;;;;4.93;4.53;;;21.10;80.30;;;;;;5010619;28;20216;-83
2022/06/23 05:02:11;;;;;;;8.45;4.07;;;21.20;80.00;;;;;;5018745;28;20227;-76
2022/06/23 05:04:43;;;;;;;8.13;4.88;;;21.20;80.60;;;;;;5050170;28;20187;-75
2022/06/23 05:07:28;;;;;;;4.53;4.22;;;21.30;81.00;;;;;;5055985;28;20269;-77
2022/06/23 05:09:58;;;;;;;7.20;4.40;;;21.30;80.50;;;;;;5062889;28;20207;-78
2022/06/23 05:12:33;;;;;;;4.90;4.15;;;21.30;81.00;;;;;;5056617;28;20187;-77
2022/06/23 05:15:19;;;;;;;8.52;4.97;;;21.40;80.90;;;;;;5059129;28;20190;-78
2022/06/23 05:18:17;;;;;;;4.55;4.18;;;21.40;80.20;;;;;;5049349;28;20250;-75
2022/06/23 05:20:51;;;;;;;4.97;4.28;;;21.50;80.60;;;;;;5049327;28;20175;-74
2022/06/23 05:23:23;;;;;;;4.88;4.57;;;21.50;80.90;;;;;;5048268;28;20257;-74
2022/06/23 05:25:53;;;;;;;4.95;4.65;;;21.60;80.10;;;;;;5050358;28;20627;-74
2022/06/23 05:28:30;;;;;;;6.47;4.45;;;21.70;80.30;;;;;;5048397;28;20930;-75
2022/06/23 05:31:03;;;;;;;5.32;4.93;;;21.80;80.10;;;;;;5052050;28;20251;-73
2022/06/23 05:33:28;;;;;;;5.22;4.72;;;21.90;80.50;;;;;;5046838;28;20214;-74
2022/06/23 05:36:03;;;;;;;8.52;5.25;;;22.00;80.90;;;;;;5046859;28;20221;-75
2022/06/23 05:38:52;;;;;;;4.93;4.53;;;22.00;80.40;;;;;;5063470;28;20209;-75
2022/06/23 05:41:23;;;;;;;5.22;4.85;;;22.10;80.30;;;;;;5049977;28;20195;-79
2022/06/23 05:43:54;;;;;;;5.78;4.38;;;22.10;81.20;;;;;;5048779;28;20179;-80
2022/06/23 05:46:27;;;;;;;6.20;5.18;;;22.20;80.70;;;;;;5055888;28;20194;-80
2022/06/23 05:49:04;;;;;;;8.18;5.38;;;22.30;80.00;;;;;;5064960;28;20183;-80
2022/06/23 05:51:49;;;;;;;6.38;5.10;;;22.30;79.50;;;;;;5065967;28;20170;-80
2022/06/23 05:54:22;;;;;;;5.47;5.03;;;22.30;79.80;;;;;;5056816;28;20239;-79
2022/06/23 05:57:11;;;;;;;8.13;5.40;;;22.30;80.30;;;;;;5060234;28;20187;-77
2022/06/23 06:00:10;;;;;;;7.95;5.03;;;22.20;81.00;;;;;;5044276;28;20187;-81
2022/06/23 06:02:47;;;;;;;6.60;4.22;;;21.90;84.60;;;;;;5049497;28;20246;-80
2022/06/23 06:05:37;;;;;;;7.85;4.10;;;21.70;83.70;;;;;;5043710;28;20704;-82
2022/06/23 06:08:18;;;;;;;3.47;2.95;;;21.40;83.60;;;;;;5071218;28;20187;-83
2022/06/23 06:10:47;;;;;;;4.40;3.13;;;21.10;83.50;;;;;;5065675;28;20340;-82
2022/06/23 06:13:26;;;;;;;3.00;2.80;;;20.80;86.20;;;;;;5060906;28;20187;-83
2022/06/23 06:15:55;;;;;;;3.78;3.25;;;20.20;88.80;;;;;;5065644;28;20206;-82
2022/06/23 06:18:27;;;;;;;3.47;3.15;;;19.80;88.20;;;;;;5069315;28;20221;-82
2022/06/23 06:20:56;;;;;;;3.58;2.40;;;19.50;88.40;;;;;;5072456;28;20691;-82
2022/06/23 06:23:42;;;;;;;3.08;1.75;;;19.30;89.40;;;;;;5065666;28;20187;-82
2022/06/23 06:26:13;;;;;;;2.80;2.30;;;19.00;89.30;;;;;;5053387;28;20194;-83
2022/06/23 06:28:39;;;;;;;2.33;2.22;;;18.80;90.00;;;;;;5064852;28;20194;-83
2022/06/23 06:31:18;;;;;;;1.98;1.90;;;18.60;91.00;;;;;;5065719;28;20193;-82
2022/06/23 06:34:08;;;;;;;1.42;1.33;;;18.60;90.40;;;;;;5065086;28;20209;-82
2022/06/23 06:36:44;;;;;;;1.75;1.65;;;18.30;91.80;;;;;;5044480;28;20182;-83
2022/06/23 06:39:34;;;;;;;2.25;1.70;;;18.20;91.30;;;;;;5049915;28;20654;-83
2022/06/23 06:42:05;;;;;;;1.67;1.58;;;18.20;91.30;;;;;;5049778;28;20656;-84
2022/06/23 06:44:32;;;;;;;4.43;1.73;;;18.20;92.00;;;;;;5054046;28;20191;-83
2022/06/23 06:47:01;;;;;;;2.20;1.95;;;18.20;91.30;;;;;;5047035;28;20594;-84
2022/06/23 06:49:29;;;;;;;2.75;1.85;;;18.10;90.90;;;;;;5052419;28;20203;-83
2022/06/23 06:51:57;;;;;;;3.47;1.60;;;18.10;90.10;;;;;;5052804;28;20514;-83
2022/06/23 06:54:40;;;;;;;2.42;1.83;;;18.30;93.20;;;;;;5046999;28;20237;-83
2022/06/23 06:57:13;;;;;;;1.92;1.83;;;18.30;93.00;;;;;;5052109;28;20186;-83
2022/06/23 06:59:45;;;;;;;4.07;2.17;;;18.40;90.90;;;;;;5057814;28;20187;-84
2022/06/23 07:02:27;;;;;;;1.70;1.60;;;18.40;90.40;;;;;;5056005;28;20206;-83
2022/06/23 07:05:23;;;;;;;1.52;1.33;;;18.50;90.30;;;;;;5057531;28;20218;-83
2022/06/23 07:08:21;;;;;;;1.85;1.75;;;18.60;91.00;;;;;;5056322;28;20199;-84
2022/06/23 07:10:55;;;;;;;2.05;1.58;;;18.70;90.60;;;;;;5051336;28;20203;-84
2022/06/23 07:13:31;;;;;;;1.90;1.80;;;18.80;90.60;;;;;;5058956;28;20182;-85
2022/06/23 07:16:02;;;;;;;2.00;1.90;;;18.90;89.40;;;;;;5059524;28;20264;-85
2022/06/23 07:18:40;;;;;;;3.30;2.72;;;19.00;88.90;;;;;;5058154;28;20758;-85
2022/06/23 07:21:20;;;;;;;2.35;2.15;;;19.20;88.00;;;;;;5058750;28;20226;-84
2022/06/23 07:24:12;;;;;;;2.67;2.53;;;19.30;87.20;;;;;;5057161;28;20176;-84
2022/06/23 07:26:42;;;;;;;2.85;2.45;;;19.40;86.60;;;;;;5053443;28;20187;-85
2022/06/23 07:29:41;;;;;;;2.05;1.92;;;19.60;87.40;;;;;;5060467;28;20179;-84
2022/06/23 07:32:45;;;;;;;2.22;2.10;;;19.80;86.50;;;;;;5057191;28;20203;-84
2022/06/23 07:35:17;;;;;;;5.25;1.98;;;20.00;89.50;;;;;;5022210;28;20238;-85
2022/06/23 07:38:04;;;;;;;6.28;2.33;;;20.20;87.60;;;;;;5013340;28;20216;-85
2022/06/23 07:40:37;;;;;;;2.42;2.33;;;20.30;87.10;;;;;;5017685;28;20216;-85
2022/06/23 07:43:10;;;;;;;3.03;2.38;;;20.50;87.30;;;;;;5010530;28;20185;-84
2022/06/23 07:45:55;;;;;;;2.88;2.67;;;20.70;88.50;;;;;;5011554;28;20232;-85
2022/06/23 07:48:21;;;;;;;2.90;2.70;;;21.00;89.30;;;;;;5021388;28;20184;-85
2022/06/23 07:50:47;;;;;;;3.55;3.25;;;21.20;88.40;;;;;;5008612;28;20262;-85
2022/06/23 07:53:24;;;;;;;3.50;3.30;;;21.40;89.10;;;;;;5019558;28;20658;-85
2022/06/23 07:55:50;;;;;;;3.78;3.17;;;21.60;87.80;;;;;;5018202;28;20253;-85
2022/06/23 07:58:25;;;;;;;3.30;3.10;;;21.70;88.20;;;;;;5015781;28;20221;-85
2022/06/23 08:01:01;;;;;;;5.10;3.25;;;21.90;88.20;;;;;;4994361;28;20184;-85
2022/06/23 08:03:43;;;;;;;3.63;2.83;;;22.10;87.00;;;;;;5012401;28;20184;-84
2022/06/23 08:06:14;;;;;;;3.65;2.15;;;22.30;87.30;;;;;;5017553;28;20192;-85
2022/06/23 08:08:43;;;;;;;2.42;2.33;;;22.30;86.00;;;;;;4999154;28;20218;-84
2022/06/23 08:14:05;;;;;;;2.17;2.08;;;22.50;85.50;;;;;;5057878;28;20206;-85
2022/06/23 08:16:50;;;;;;;2.15;2.05;;;22.60;85.00;;;;;;5054142;28;20667;-85
2022/06/23 08:19:29;;;;;;;1.92;1.83;;;22.70;85.20;;;;;;5051521;28;20224;-85
2022/06/23 08:22:04;;;;;;;2.80;1.92;;;22.80;82.40;;;;;;5051791;28;20190;-84
2022/06/23 08:24:32;;;;;;;1.98;1.80;;;22.80;82.80;;;;;;5053458;28;20178;-84
2022/06/23 08:27:02;;;;;;;2.08;1.95;;;22.90;83.70;;;;;;5054745;28;20187;-85
2022/06/23 08:29:34;;;;;;;2.90;2.30;;;23.00;83.70;;;;;;5050686;28;20757;-84
2022/06/23 08:32:00;;;;;;;2.85;2.42;;;23.10;82.90;;;;;;5046444;28;20175;-85
2022/06/23 08:34:29;;;;;;;4.65;2.05;;;23.10;82.40;;;;;;5053707;28;20187;-84
2022/06/23 08:37:01;;;;;;;1.77;1.77;;;23.20;82.50;;;;;;5051622;28;20280;-85
2022/06/23 08:39:52;;;;;;;2.45;2.15;;;23.30;82.70;;;;;;5057473;28;20783;-85
2022/06/23 08:42:55;;;;;;;2.35;2.17;;;23.40;81.40;;;;;;5053793;28;20567;-85
2022/06/23 08:45:50;;;;;;;4.40;2.25;;;23.50;81.40;;;;;;5060851;28;20716;-85
2022/06/23 08:48:52;;;;;;;2.03;1.92;;;23.70;80.60;;;;;;5061000;28;20998;-86
2022/06/23 08:51:26;;;;;;;2.00;1.98;;;23.80;80.30;;;;;;5043885;28;20245;-85
2022/06/23 08:54:21;;;;;;;2.05;1.95;;;23.90;81.10;;;;;;5062996;28;20202;-83
2022/06/23 08:57:03;;;;;;;4.32;2.08;;;24.00;81.10;;;;;;4975398;28;20284;-84
2022/06/23 08:59:46;;;;;;;2.22;2.13;;;24.00;80.40;;;;;;4968861;28;20194;-84
2022/06/23 09:02:20;;;;;;;3.03;2.03;;;24.10;80.40;;;;;;4981716;28;20196;-85
2022/06/23 09:05:12;;;;;;;3.13;2.50;;;24.20;80.90;;;;;;4976359;28;20425;-85
2022/06/23 09:07:52;;;;;;;2.80;2.70;;;24.20;79.50;;;;;;4978850;28;20305;-86
2022/06/23 09:10:35;;;;;;;3.28;3.00;;;24.30;80.80;;;;;;4979892;28;20189;-85
2022/06/23 09:13:38;;;;;;;7.82;4.30;;;24.40;80.60;;;;;;4972247;28;20197;-85
2022/06/23 09:16:12;;;;;;;4.43;3.60;;;24.50;79.20;;;;;;4973229;28;20725;-85
2022/06/23 09:19:15;;;;;;;6.45;4.38;;;24.50;79.80;;;;;;4983999;28;20249;-85
2022/06/23 09:21:40;;;;;;;3.80;3.50;;;24.50;78.40;;;;;;4993516;28;20350;-85
2022/06/23 09:24:25;;;;;;;3.80;3.50;;;24.50;78.60;;;;;;4991496;28;20189;-85
2022/06/23 09:27:30;;;;;;;4.03;3.70;;;24.50;80.10;;;;;;4987638;28;20189;-84
2022/06/23 09:29:59;;;;;;;4.22;3.88;;;24.60;79.80;;;;;;4993127;28;20181;-85
2022/06/23 09:32:54;;;;;;;4.50;4.20;;;24.70;78.20;;;;;;4992047;28;20482;-85
2022/06/23 09:35:42;;;;;;;4.28;3.97;;;24.80;77.40;;;;;;5052662;28;20686;-85
2022/06/23 09:38:29;;;;;;;6.07;3.65;;;24.80;77.90;;;;;;5050055;28;20600;-84
2022/06/23 09:41:08;;;;;;;4.22;3.90;;;24.80;77.90;;;;;;5051730;28;20186;-84
2022/06/23 09:44:15;;;;;;;3.40;2.97;;;24.80;78.00;;;;;;5052997;28;20240;-84
2022/06/23 09:46:52;;;;;;;3.40;2.53;;;24.80;77.90;;;;;;5051361;28;20481;-85
2022/06/23 09:49:30;;;;;;;3.78;3.58;;;24.90;79.50;;;;;;5055801;28;20183;-86
2022/06/23 09:52:20;;;;;;;6.85;3.58;;;25.10;78.70;;;;;;5053981;28;20223;-85
2022/06/23 09:55:25;;;;;;;5.00;4.07;;;25.20;79.20;;;;;;5049645;28;20636;-86
2022/06/23 09:58:06;;;;;;;4.93;4.53;;;25.40;80.50;;;;;;5028546;28;20220;-85
2022/06/23 10:00:46;;;;;;;8.45;5.00;;;25.50;79.50;;;;;;5031083;28;20207;-84
2022/06/23 10:03:33;;;;;;;6.05;4.22;;;25.70;78.20;;;;;;5030438;28;20252;-85
2022/06/23 10:06:16;;;;;;;4.63;4.20;;;25.80;77.40;;;;;;5034195;28;21025;-86
2022/06/23 10:08:53;;;;;;;4.78;4.28;;;26.00;78.50;;;;;;5029543;28;20681;-85
2022/06/23 10:11:28;;;;;;;9.43;3.90;;;26.10;78.50;;;;;;5030530;28;20180;-85
2022/06/23 10:14:05;;;;;;;4.45;4.07;;;26.30;79.30;;;;;;5028900;28;20203;-85
2022/06/23 10:17:01;;;;;;;4.43;4.10;;;26.60;78.80;;;;;;5028820;28;20198;-84
2022/06/23 10:19:50;;;;;;;5.85;3.83;;;26.90;76.70;;;;;;5027685;28;20224;-85
2022/06/23 10:22:33;;;;;;;5.60;4.03;;;27.20;76.10;;;;;;5029412;28;20643;-86
2022/06/23 10:25:08;;;;;;;6.40;3.65;;;27.30;75.70;;;;;;5029381;28;20192;-86
2022/06/23 10:27:54;;;;;;;4.07;3.88;;;27.50;75.50;;;;;;5029672;28;20213;-85
2022/06/23 10:30:43;;;;;;;6.38;4.43;;;27.60;74.80;;;;;;5029848;28;20660;-84
2022/06/23 10:33:36;;;;;;;3.97;3.67;;;27.80;74.90;;;;;;4962685;28;20277;-85
2022/06/23 10:36:11;;;;;;;4.50;4.20;;;27.90;74.50;;;;;;4977026;28;20201;-86
2022/06/23 10:38:52;;;;;;;5.50;4.80;;;28.10;73.30;;;;;;4981624;28;20701;-87
2022/06/23 10:41:37;;;;;;;6.03;4.68;;;28.40;73.70;;;;;;4965529;28;20737;-85
2022/06/23 10:44:15;;;;;;;6.82;4.20;;;28.70;71.20;;;;;;4979098;28;20225;-86
2022/06/23 10:46:47;;;;;;;4.70;4.38;;;29.00;71.20;;;;;;4981681;28;20205;-85
2022/06/23 10:49:44;;;;;;;7.18;4.60;;;29.50;70.20;;;;;;4965256;28;20185;-85
2022/06/23 10:52:35;;;;;;;4.28;3.97;;;29.70;68.80;;;;;;4980807;28;20675;-86
2022/06/23 10:55:22;;;;;;;4.15;3.92;;;30.00;68.90;;;;;;4980586;28;20245;-84
2022/06/23 10:58:29;;;;;;;5.82;4.15;;;30.30;69.80;;;;;;4965820;28;20256;-85
2022/06/23 11:01:05;;;;;;;3.95;3.65;;;30.70;67.50;;;;;;4981446;28;20505;-86
2022/06/23 11:03:55;;;;;;;6.90;3.78;;;31.20;67.40;;;;;;4980515;28;20193;-84
2022/06/23 11:06:41;;;;;;;4.18;3.88;;;31.70;65.10;;;;;;4978451;28;20185;-85
2022/06/23 11:09:10;;;;;;;5.60;3.45;;;32.40;63.20;;;;;;4980818;28;20220;-84
2022/06/23 11:12:06;;;;;;;7.07;3.90;;;32.70;63.60;;;;;;5045783;28;20186;-85
2022/06/23 11:14:59;;;;;;;6.70;4.38;;;33.20;62.50;;;;;;5045241;28;20194;-85
2022/06/23 11:17:44;;;;;;;5.35;3.35;;;33.50;61.90;;;;;;5049082;28;20615;-82
2022/06/23 11:20:37;;;;;;;3.80;3.55;;;33.90;62.10;;;;;;5046304;28;20247;-82
2022/06/23 11:23:21;;;;;;;4.07;3.85;;;34.30;60.90;;;;;;5052305;28;20187;-81
2022/06/23 11:26:14;;;;;;;3.65;3.35;;;34.80;60.40;;;;;;5043768;28;20215;-81
2022/06/23 11:29:06;;;;;;;7.32;3.50;;;35.10;60.20;;;;;;5041894;28;20711;-81
2022/06/23 11:32:06;;;;;;;6.28;3.30;;;35.50;58.00;;;;;;5045139;28;20183;-81
2022/06/23 11:35:07;;;;;;;3.50;3.20;;;35.90;58.40;;;;;;5049864;28;20187;-80
2022/06/23 11:37:35;;;;;;;3.90;3.58;;;36.60;56.50;;;;;;5040831;28;20233;-80
2022/06/23 11:40:38;;;;;;;2.97;2.80;;;37.00;57.40;;;;;;5043184;28;20192;-80
2022/06/23 11:43:06;;;;;;;2.65;2.50;;;36.90;56.10;;;;;;4941782;28;20285;-81
2022/06/23 11:45:54;;;;;;;2.85;2.75;;;36.80;57.60;;;;;;4944431;29;20684;-81
2022/06/23 11:48:40;;;;;;;4.40;2.70;;;37.00;57.40;;;;;;4944315;28;20210;-80
2022/06/23 11:51:18;;;;;;;4.78;2.83;;;37.20;56.50;;;;;;4945165;28;20198;-81
2022/06/23 11:54:05;;;;;;;5.30;2.70;;;37.40;56.00;;;;;;4941283;28;20615;-81
2022/06/23 11:56:54;;;;;;;10.68;2.80;;;37.70;53.90;;;;;;4943994;28;20537;-81
2022/06/23 11:59:53;;;;;;;6.43;2.47;;;37.50;55.20;;;;;;4943296;28;20207;-80
2022/06/23 12:02:19;;;;;;;2.53;2.42;;;37.50;55.00;;;;;;4943957;29;20198;-81
2022/06/23 12:05:12;;;;;;;2.55;2.45;;;37.40;53.40;;;;;;4943559;28;20726;-82
2022/06/23 12:08:03;;;;;;;7.15;2.80;;;37.10;53.80;;;;;;4927624;29;20262;-80
2022/06/23 12:10:32;;;;;;;3.25;2.28;;;36.70;54.70;;;;;;4942417;28;20203;-81
2022/06/23 12:13:01;;;;;;;3.25;2.88;;;36.40;56.80;;;;;;4925146;28;20249;-81
2022/06/23 12:15:31;;;;;;;5.95;2.83;;;36.20;56.40;;;;;;4924219;29;20214;-79
2022/06/23 12:18:04;;;;;;;3.85;2.50;;;35.90;57.40;;;;;;4940295;29;20214;-81
2022/06/23 12:20:39;;;;;;;2.53;2.33;;;35.90;56.30;;;;;;5032135;28;20190;-81
2022/06/23 12:23:18;;;;;;;4.13;2.38;;;35.90;55.40;;;;;;5047345;28;20572;-81
2022/06/23 12:25:50;;;;;;;3.40;2.40;;;35.60;55.50;;;;;;5050768;28;20260;-82
2022/06/23 12:28:44;;;;;;;5.75;2.63;;;35.40;56.30;;;;;;5044074;28;20652;-82
2022/06/23 12:31:38;;;;;;;4.60;3.03;;;35.20;55.20;;;;;;5047213;28;20225;-82
2022/06/23 12:34:04;;;;;;;9.27;2.97;;;34.70;56.30;;;;;;5027900;28;20199;-81
2022/06/23 12:37:05;;;;;;;5.85;3.13;;;34.50;58.10;;;;;;5045902;28;20757;-81
2022/06/23 12:39:55;;;;;;;3.83;2.90;;;34.50;57.70;;;;;;5040725;28;20222;-81
2022/06/23 12:42:34;;;;;;;6.03;3.00;;;33.90;57.20;;;;;;5044018;28;20201;-81
2022/06/23 12:45:41;;;;;;;5.72;4.30;;;33.70;59.00;;;;;;5040781;28;20464;-81
2022/06/23 12:48:44;;;;;;;4.90;3.55;;;33.40;58.50;;;;;;5042955;28;20187;-81
2022/06/23 12:51:32;;;;;;;4.35;3.63;;;33.20;58.40;;;;;;5045395;28;20210;-82
2022/06/23 12:54:18;;;;;;;3.70;3.28;;;33.10;58.70;;;;;;5033886;28;20199;-82
2022/06/23 12:57:08;;;;;;;5.28;4.18;;;32.60;59.20;;;;;;5049758;28;20535;-82
2022/06/23 13:00:05;;;;;;;5.10;4.60;;;32.10;60.00;;;;;;5040063;28;20222;-83
2022/06/23 13:02:40;;;;;;;7.15;4.47;;;31.70;60.90;;;;;;5026353;28;20175;-82
2022/06/23 13:05:33;;;;;;;10.75;4.55;;;31.70;61.80;;;;;;5045914;28;20350;-81
2022/06/23 13:08:05;;;;;;;5.47;4.75;;;31.30;61.30;;;;;;5041281;28;20401;-82
2022/06/23 13:10:36;;;;;;;12.48;5.60;;;30.90;61.80;;;;;;5046628;28;20230;-82
2022/06/23 13:13:30;;;;;;;8.70;5.25;;;30.70;62.70;;;;;;5052534;28;20636;-82
2022/06/23 13:16:18;;;;;;;6.82;5.05;;;30.40;63.00;;;;;;5029155;28;20755;-82
2022/06/23 13:18:57;;;;;;;8.57;6.47;;;30.00;63.80;;;;;;5028464;28;20232;-82
2022/06/23 13:21:33;;;;;;;7.53;6.15;;;29.70;64.60;;;;;;5028033;28;20266;-81
2022/06/23 13:24:12;;;;;;;7.53;5.95;;;29.50;65.10;;;;;;5026411;28;20191;-81
2022/06/23 13:26:58;;;;;;;6.70;6.07;;;29.40;65.40;;;;;;5032968;28;20237;-81
2022/06/23 13:29:42;;;;;;;10.32;6.50;;;29.10;65.80;;;;;;5029764;28;20214;-80
2022/06/23 13:32:38;;;;;;;7.82;7.03;;;28.90;66.50;;;;;;5025975;28;20242;-81
2022/06/23 13:35:21;;;;;;;8.93;6.60;;;29.10;66.60;;;;;;5025410;28;20192;-81
2022/06/23 13:38:03;;;;;;;7.60;7.00;;;29.40;66.20;;;;;;5023203;28;20456;-80
2022/06/23 13:40:33;;;;;;;7.57;6.97;;;29.80;66.10;;;;;;5023258;28;20669;-82
2022/06/23 13:43:28;;;;;;;11.68;7.55;;;30.30;63.20;;;;;;5026451;28;20175;-81
2022/06/23 13:46:12;;;;;;;7.85;7.15;;;30.30;62.40;;;;;;4985220;28;20217;-81
2022/06/23 13:48:58;;;;;;;8.70;7.18;;;30.00;62.70;;;;;;4966383;28;20216;-81
2022/06/23 13:51:34;;;;;;;8.65;7.88;;;29.80;63.50;;;;;;4981270;28;20201;-80
2022/06/23 13:54:14;;;;;;;8.88;6.90;;;29.90;63.80;;;;;;5023319;28;20282;-79
2022/06/23 13:56:46;;;;;;;8.75;7.18;;;29.90;63.80;;;;;;5027741;28;20574;-81
2022/06/23 13:59:31;;;;;;;7.18;6.57;;;30.00;64.00;;;;;;5026456;28;20212;-81